createdAt,value
2024-05-09T00:00:36.231Z,18.23
2024-05-09T00:03:11.039Z,17.80
2024-05-09T00:05:42.341Z,17.58
2024-05-09T00:08:10.424Z,16.88
2024-05-09T00:10:39.173Z,16.48
2024-05-09T00:13:07.550Z,17.98
2024-05-09T00:15:35.056Z,18.38
2024-05-09T00:18:02.640Z,17.85
2024-05-09T00:20:37.383Z,16.75
2024-05-09T00:23:07.953Z,17.85
2024-05-09T00:25:35.498Z,16.77
2024-05-09T00:28:03.057Z,17.67
2024-05-09T00:30:34.526Z,17.17
2024-05-09T00:33:05.340Z,16.92
2024-05-09T00:35:33.063Z,18.10
2024-05-09T00:38:00.158Z,16.58
2024-05-09T00:40:37.287Z,17.17
2024-05-09T00:43:06.956Z,16.67
2024-05-09T00:45:34.676Z,17.15
2024-05-09T00:48:02.987Z,16.52
2024-05-09T00:50:35.984Z,17.05
2024-05-09T00:53:06.082Z,17.02
2024-05-09T00:55:35.184Z,17.73
2024-05-09T00:58:02.643Z,17.35
2024-05-09T01:00:37.811Z,16.50
2024-05-09T01:03:07.501Z,16.75
2024-05-09T01:05:35.404Z,16.98
2024-05-09T01:08:03.058Z,16.83
2024-05-09T01:10:34.502Z,16.60
2024-05-09T01:13:03.472Z,17.27
2024-05-09T01:15:30.075Z,17.48
2024-05-09T01:17:57.682Z,17.45
2024-05-09T01:20:36.424Z,16.98
2024-05-09T01:23:09.573Z,17.25
2024-05-09T01:25:36.836Z,17.05
2024-05-09T01:28:03.906Z,16.65
2024-05-09T01:30:34.995Z,17.42
2024-05-09T01:33:05.382Z,16.67
2024-05-09T01:35:33.298Z,16.70
2024-05-09T01:37:59.975Z,17.02
2024-05-09T01:40:36.265Z,16.48
2024-05-09T01:43:05.797Z,17.88
2024-05-09T01:45:32.397Z,16.98
2024-05-09T01:47:59.547Z,16.70
2024-05-09T01:50:37.218Z,16.83
2024-05-09T01:53:08.364Z,17.00
2024-05-09T01:55:35.112Z,16.58
2024-05-09T01:58:01.688Z,17.80
2024-05-09T02:00:37.122Z,16.75
2024-05-09T02:03:14.901Z,16.40
2024-05-09T02:05:45.227Z,17.33
2024-05-09T02:08:22.228Z,17.73
2024-05-09T02:10:50.373Z,17.77
2024-05-09T02:13:17.414Z,18.33
2024-05-09T02:15:44.265Z,18.35
2024-05-09T02:18:11.563Z,18.60
2024-05-09T02:20:40.608Z,17.65
2024-05-09T02:23:08.943Z,17.67
2024-05-09T02:25:35.801Z,17.45
2024-05-09T02:28:02.375Z,17.75
2024-05-09T02:30:38.267Z,17.77
2024-05-09T02:33:09.514Z,17.17
2024-05-09T02:35:37.599Z,17.30
2024-05-09T02:38:04.524Z,17.48
2024-05-09T02:40:37.495Z,17.45
2024-05-09T02:43:12.700Z,17.65
2024-05-09T02:45:40.436Z,17.10
2024-05-09T02:48:10.062Z,17.55
2024-05-09T02:50:39.520Z,17.23
2024-05-09T02:53:07.822Z,17.27
2024-05-09T02:55:35.000Z,16.55
2024-05-09T02:58:01.674Z,18.00
2024-05-09T03:00:36.774Z,17.55
2024-05-09T03:03:12.501Z,18.27
2024-05-09T03:05:41.616Z,17.67
2024-05-09T03:08:08.535Z,16.85
2024-05-09T03:10:37.518Z,17.27
2024-05-09T03:13:09.877Z,17.77
2024-05-09T03:15:36.776Z,17.10
2024-05-09T03:18:04.698Z,16.63
2024-05-09T03:20:34.892Z,16.35
2024-05-09T03:23:03.382Z,16.15
2024-05-09T03:25:30.272Z,17.20
2024-05-09T03:27:56.889Z,17.50
2024-05-09T03:30:38.137Z,18.08
2024-05-09T03:33:16.786Z,19.02
2024-05-09T03:35:44.213Z,17.25
2024-05-09T03:38:10.914Z,17.42
2024-05-09T03:40:47.810Z,17.45
2024-05-09T03:43:15.473Z,16.63
2024-05-09T03:45:42.830Z,17.30
2024-05-09T03:48:10.556Z,18.33
2024-05-09T03:50:37.782Z,18.63
2024-05-09T03:53:05.165Z,18.60
2024-05-09T03:55:32.100Z,18.02
2024-05-09T03:57:59.125Z,17.55
2024-05-09T04:00:34.244Z,18.88
2024-05-09T04:03:07.280Z,17.52
2024-05-09T04:05:36.730Z,18.35
2024-05-09T04:08:03.463Z,18.05
2024-05-09T04:10:33.640Z,18.52
2024-05-09T04:13:02.667Z,17.02
2024-05-09T04:15:29.801Z,16.83
2024-05-09T04:17:56.758Z,16.95
2024-05-09T04:20:33.484Z,17.63
2024-05-09T04:23:11.806Z,15.63
2024-05-09T04:25:41.821Z,16.35
2024-05-09T04:28:08.453Z,16.98
2024-05-09T04:30:39.189Z,15.73
2024-05-09T04:33:10.685Z,15.88
2024-05-09T04:35:39.347Z,17.45
2024-05-09T04:38:06.552Z,17.15
2024-05-09T04:40:36.186Z,15.70
2024-05-09T04:43:13.353Z,15.55
2024-05-09T04:45:39.934Z,16.98
2024-05-09T04:48:07.282Z,16.85
2024-05-09T04:50:37.779Z,17.33
2024-05-09T04:53:08.484Z,16.35
2024-05-09T04:55:36.558Z,16.15
2024-05-09T04:58:03.471Z,15.23
2024-05-09T05:00:35.977Z,15.68
2024-05-09T05:03:10.610Z,15.25
2024-05-09T05:05:43.640Z,14.27
2024-05-09T05:08:16.264Z,12.65
2024-05-09T05:10:44.219Z,13.50
2024-05-09T05:13:20.879Z,13.68
2024-05-09T05:15:50.034Z,14.02
2024-05-09T05:18:17.951Z,13.57
2024-05-09T05:20:45.146Z,14.02
2024-05-09T05:23:13.718Z,14.48
2024-05-09T05:25:44.074Z,14.45
2024-05-09T05:28:11.215Z,14.70
2024-05-09T05:30:38.642Z,14.70
2024-05-09T05:33:07.222Z,13.80
2024-05-09T05:35:35.990Z,14.25
2024-05-09T05:38:09.404Z,16.73
2024-05-09T05:40:40.547Z,16.77
2024-05-09T05:43:10.286Z,18.23
2024-05-09T05:45:37.481Z,19.13
2024-05-09T05:48:06.136Z,20.02
2024-05-09T05:50:36.556Z,18.58
2024-05-09T05:53:09.582Z,17.58
2024-05-09T05:55:39.207Z,17.52
2024-05-09T05:58:09.470Z,18.85
2024-05-09T06:00:39.118Z,17.80
2024-05-09T06:03:12.498Z,16.70
2024-05-09T06:05:40.549Z,16.00
2024-05-09T06:08:07.853Z,16.05
2024-05-09T06:10:38.622Z,15.48
2024-05-09T06:13:08.847Z,15.18
2024-05-09T06:15:35.401Z,15.38
2024-05-09T06:18:05.672Z,14.63
2024-05-09T06:20:36.461Z,14.98
2024-05-09T06:23:08.991Z,15.23
2024-05-09T06:25:36.268Z,15.50
2024-05-09T06:28:03.562Z,15.77
2024-05-09T06:30:38.007Z,15.00
2024-05-09T06:33:08.847Z,15.65
2024-05-09T06:35:36.363Z,17.17
2024-05-09T06:38:03.306Z,15.82
2024-05-09T06:40:37.175Z,15.88
2024-05-09T06:43:13.615Z,14.35
2024-05-09T06:45:40.499Z,14.88
2024-05-09T06:48:08.621Z,14.57
2024-05-09T06:50:38.091Z,15.57
2024-05-09T06:53:06.740Z,14.88
2024-05-09T06:55:33.446Z,15.73
2024-05-09T06:58:00.048Z,14.90
2024-05-09T07:00:34.818Z,15.48
2024-05-09T07:03:16.055Z,14.60
2024-05-09T07:05:45.798Z,14.75
2024-05-09T07:08:13.231Z,14.88
2024-05-09T07:10:40.150Z,16.05
2024-05-09T07:13:14.952Z,14.73
2024-05-09T07:15:42.269Z,15.00
2024-05-09T07:18:13.899Z,14.05
2024-05-09T07:20:41.335Z,14.23
2024-05-09T07:23:12.596Z,14.30
2024-05-09T07:25:40.702Z,14.43
2024-05-09T07:28:12.070Z,14.88
2024-05-09T07:30:38.688Z,14.13
2024-05-09T07:33:05.831Z,14.27
2024-05-09T07:35:32.824Z,14.30
2024-05-09T07:37:59.739Z,13.77
2024-05-09T07:40:33.251Z,14.05
2024-05-09T07:43:14.098Z,13.75
2024-05-09T07:45:50.541Z,14.63
2024-05-09T07:53:39.030Z,14.32
2024-05-09T07:56:09.735Z,14.27
2024-05-09T07:58:37.333Z,14.50
2024-05-09T08:01:04.338Z,14.00
2024-05-09T08:03:31.618Z,13.77
2024-05-09T08:05:58.195Z,13.57
2024-05-09T08:08:24.911Z,14.85
2024-05-09T08:10:51.665Z,14.32
2024-05-09T08:13:18.499Z,14.02
2024-05-09T08:15:45.249Z,13.00
2024-05-09T08:18:12.218Z,13.18
2024-05-09T08:20:40.060Z,12.48
2024-05-09T08:23:07.089Z,13.38
2024-05-09T08:25:33.823Z,13.30
2024-05-09T08:28:00.674Z,13.13
2024-05-09T08:30:33.628Z,14.27
2024-05-09T08:33:04.619Z,12.23
2024-05-09T08:35:32.034Z,12.20
2024-05-09T08:37:59.057Z,11.43
2024-05-09T08:40:33.324Z,11.82
2024-05-09T08:43:03.050Z,11.93
2024-05-09T08:45:31.189Z,12.13
2024-05-09T08:48:00.211Z,12.40
2024-05-09T08:50:35.436Z,12.90
2024-05-09T08:53:05.558Z,12.50
2024-05-09T08:55:32.451Z,13.73
2024-05-09T08:58:01.898Z,13.45
2024-05-09T09:00:36.519Z,12.43
2024-05-09T09:03:09.023Z,12.43
2024-05-09T09:05:39.325Z,12.43
2024-05-09T09:08:08.396Z,11.30
2024-05-09T09:10:35.761Z,12.77
2024-05-09T09:13:04.921Z,11.32
2024-05-09T09:15:32.642Z,11.70
2024-05-09T09:18:01.056Z,12.70
2024-05-09T09:20:35.839Z,11.88
2024-05-09T09:23:04.417Z,12.20
2024-05-09T09:25:31.427Z,10.55
2024-05-09T09:27:58.632Z,10.60
2024-05-09T09:30:35.145Z,11.23
2024-05-09T09:33:08.662Z,11.70
2024-05-09T09:35:38.589Z,11.38
2024-05-09T09:38:07.131Z,10.75
2024-05-09T09:40:39.078Z,10.48
2024-05-09T09:43:22.397Z,11.23
2024-05-09T09:45:55.113Z,11.25
2024-05-09T09:48:22.844Z,9.77
2024-05-09T09:50:51.495Z,10.93
2024-05-09T09:53:18.810Z,11.45
2024-05-09T09:55:46.335Z,11.32
2024-05-09T09:58:16.294Z,11.32
2024-05-09T10:00:43.315Z,11.10
2024-05-09T10:03:10.214Z,11.10
2024-05-09T10:05:37.537Z,10.93
2024-05-09T10:08:07.251Z,10.43
2024-05-09T10:10:35.412Z,11.20
2024-05-09T10:13:08.946Z,10.70
2024-05-09T10:15:46.541Z,10.32
2024-05-09T10:18:14.356Z,11.55
2024-05-09T10:20:45.166Z,10.77
2024-05-09T10:23:28.568Z,11.25
2024-05-09T10:26:00.085Z,10.52
2024-05-09T10:28:31.728Z,11.80
2024-05-09T10:31:13.318Z,10.90
2024-05-09T10:33:51.861Z,11.63
2024-05-09T10:36:19.295Z,10.40
2024-05-09T10:38:46.063Z,11.50
2024-05-09T10:41:13.032Z,12.43
2024-05-09T10:43:41.031Z,12.05
2024-05-09T10:46:10.503Z,12.40
2024-05-09T10:48:38.313Z,12.75
2024-05-09T10:51:05.563Z,11.60
2024-05-09T10:53:32.271Z,11.98
2024-05-09T10:56:01.914Z,11.25
2024-05-09T10:58:28.759Z,11.05
2024-05-09T11:00:58.075Z,10.90
2024-05-09T11:03:25.780Z,11.73
2024-05-09T11:05:53.411Z,12.18
2024-05-09T11:08:22.113Z,11.73
2024-05-09T11:10:53.647Z,10.95
2024-05-09T11:13:30.114Z,12.45
2024-05-09T11:15:56.929Z,11.40
2024-05-09T11:18:26.464Z,10.90
2024-05-09T11:20:56.153Z,11.85
2024-05-09T11:23:26.284Z,11.25
2024-05-09T11:25:54.925Z,12.23
2024-05-09T11:28:22.573Z,10.98
2024-05-09T11:30:50.521Z,11.50
2024-05-09T11:33:19.748Z,11.38
2024-05-09T11:35:47.235Z,11.43
2024-05-09T11:38:14.022Z,11.45
2024-05-09T11:40:40.888Z,11.13
2024-05-09T11:43:07.768Z,11.48
2024-05-09T11:45:34.489Z,10.85
2024-05-09T11:48:01.441Z,10.00
2024-05-09T11:50:33.015Z,9.90
2024-05-09T11:53:02.428Z,11.15
2024-05-09T11:55:29.331Z,10.95
2024-05-09T11:57:56.902Z,10.43
2024-05-09T12:00:29.785Z,11.48
2024-05-09T12:03:05.313Z,10.73
2024-05-09T12:05:33.075Z,11.48
2024-05-09T12:08:00.752Z,11.48
2024-05-09T12:10:33.196Z,12.23
2024-05-09T12:13:02.654Z,12.57
2024-05-09T12:15:30.070Z,11.70
2024-05-09T12:17:59.077Z,11.75
2024-05-09T12:20:35.674Z,11.77
2024-05-09T12:23:05.485Z,11.50
2024-05-09T12:25:32.235Z,12.02
2024-05-09T12:27:58.980Z,11.35
2024-05-09T12:30:35.163Z,11.45
2024-05-09T12:33:06.168Z,11.27
2024-05-09T12:35:33.184Z,12.73
2024-05-09T12:37:59.999Z,12.85
2024-05-09T12:40:34.696Z,11.68
2024-05-09T12:43:04.990Z,11.75
2024-05-09T12:45:32.180Z,12.95
2024-05-09T12:47:59.462Z,12.88
2024-05-09T12:50:32.286Z,12.90
2024-05-09T12:53:01.843Z,12.15
2024-05-09T12:55:33.510Z,12.52
2024-05-09T12:58:06.735Z,13.02
2024-05-09T13:00:34.501Z,13.77
2024-05-09T13:03:01.648Z,11.95
2024-05-09T13:05:28.824Z,12.23
2024-05-09T13:07:56.924Z,14.10
2024-05-09T13:10:31.185Z,13.07
2024-05-09T13:13:00.923Z,14.00
2024-05-09T13:15:28.367Z,12.95
2024-05-09T13:17:58.103Z,12.70
2024-05-09T13:20:32.406Z,13.07
2024-05-09T13:23:02.648Z,14.35
2024-05-09T13:25:29.381Z,13.82
2024-05-09T13:27:56.876Z,13.48
2024-05-09T13:30:29.889Z,13.88
2024-05-09T13:33:06.071Z,13.75
2024-05-09T13:35:35.485Z,14.80
2024-05-09T13:38:03.228Z,13.65
2024-05-09T13:40:34.292Z,14.02
2024-05-09T13:43:05.792Z,13.93
2024-05-09T13:45:33.277Z,13.23
2024-05-09T13:48:00.636Z,14.32
2024-05-09T13:50:33.647Z,14.82
2024-05-09T13:53:03.598Z,13.60
2024-05-09T13:55:30.328Z,13.75
2024-05-09T13:57:57.037Z,14.25
2024-05-09T14:00:37.867Z,13.82
2024-05-09T14:03:10.588Z,15.57
2024-05-09T14:05:37.410Z,14.27
2024-05-09T14:08:04.486Z,15.05
2024-05-09T14:10:32.306Z,15.02
2024-05-09T14:13:00.251Z,14.50
2024-05-09T14:15:27.049Z,14.98
2024-05-09T14:17:54.606Z,13.60
2024-05-09T14:22:50.898Z,14.07
2024-05-09T14:25:17.735Z,13.88
2024-05-09T14:27:44.483Z,14.02
2024-05-09T14:30:18.258Z,13.60
2024-05-09T14:32:52.930Z,14.93
2024-05-09T14:35:19.813Z,14.65
2024-05-09T14:37:46.641Z,14.38
2024-05-09T14:40:30.334Z,15.50
2024-05-09T14:43:03.155Z,14.77
2024-05-09T14:45:30.300Z,15.18
2024-05-09T14:47:57.212Z,15.27
2024-05-09T14:50:32.554Z,15.23
2024-05-09T14:53:03.577Z,15.85
2024-05-09T14:55:30.728Z,15.38
2024-05-09T14:57:57.563Z,15.98
2024-05-09T15:00:28.950Z,14.63
2024-05-09T15:03:00.506Z,14.63
2024-05-09T15:05:27.499Z,14.48
2024-05-09T15:07:54.295Z,14.77
2024-05-09T15:10:27.322Z,14.43
2024-05-09T15:13:00.959Z,14.32
2024-05-09T15:15:27.722Z,15.23
2024-05-09T15:17:54.989Z,14.65
2024-05-09T15:20:30.768Z,14.93
2024-05-09T15:23:01.926Z,14.00
2024-05-09T15:25:28.739Z,14.43
2024-05-09T15:27:55.571Z,13.95
2024-05-09T15:30:30.207Z,13.90
2024-05-09T15:32:59.460Z,13.90
2024-05-09T15:35:26.172Z,13.77
2024-05-09T15:37:52.802Z,12.85
2024-05-09T15:40:26.839Z,13.98
2024-05-09T15:43:02.597Z,13.45
2024-05-09T15:45:29.590Z,13.50
2024-05-09T15:47:57.199Z,13.60
2024-05-09T15:50:35.253Z,13.75
2024-05-09T15:53:06.321Z,14.32
2024-05-09T15:55:34.187Z,13.63
2024-05-09T15:58:02.659Z,14.30
2024-05-09T16:00:37.364Z,13.80
2024-05-09T16:03:07.788Z,14.07
2024-05-09T16:05:34.735Z,13.73
2024-05-09T16:08:01.564Z,14.60
2024-05-09T16:10:32.697Z,14.75
2024-05-09T16:13:01.157Z,14.85
2024-05-09T16:15:27.980Z,15.68
2024-05-09T16:17:55.392Z,15.23
2024-05-09T16:20:33.838Z,17.75
2024-05-09T16:23:06.354Z,18.40
2024-05-09T16:25:33.137Z,18.10
2024-05-09T16:28:00.181Z,18.25
2024-05-09T16:30:34.170Z,18.58
2024-05-09T16:33:04.425Z,19.67
2024-05-09T16:35:31.954Z,18.15
2024-05-09T16:37:58.717Z,19.27
2024-05-09T16:40:34.420Z,18.70
2024-05-09T16:43:06.116Z,19.60
2024-05-09T16:45:33.299Z,18.90
2024-05-09T16:48:00.623Z,19.55
2024-05-09T16:50:32.706Z,19.67
2024-05-09T16:53:02.028Z,19.48
2024-05-09T16:55:29.045Z,19.70
2024-05-09T16:57:56.883Z,19.00
2024-05-09T17:00:34.920Z,19.90
2024-05-09T17:03:08.345Z,19.58
2024-05-09T17:05:35.871Z,19.58
2024-05-09T17:08:03.156Z,19.98
2024-05-09T17:10:33.583Z,19.42
2024-05-09T17:13:02.917Z,19.88
2024-05-09T17:15:29.963Z,18.50
2024-05-09T17:17:56.788Z,19.55
2024-05-09T17:20:31.322Z,18.80
2024-05-09T17:23:02.314Z,18.40
2024-05-09T17:25:29.415Z,18.15
2024-05-09T17:27:56.612Z,18.13
2024-05-09T17:30:29.233Z,19.17
2024-05-09T17:33:02.494Z,19.35
2024-05-09T17:35:29.444Z,19.27
2024-05-09T17:37:56.578Z,18.63
2024-05-09T17:40:30.078Z,19.70
2024-05-09T17:43:00.233Z,19.33
2024-05-09T17:45:26.933Z,19.85
2024-05-09T17:47:53.862Z,20.38
2024-05-09T17:50:27.488Z,19.85
2024-05-09T17:53:00.630Z,18.90
2024-05-09T17:55:27.498Z,20.65
2024-05-09T17:57:54.408Z,19.48
2024-05-09T18:00:29.294Z,19.50
2024-05-09T18:03:04.082Z,20.70
2024-05-09T18:05:31.190Z,20.25
2024-05-09T18:07:58.066Z,21.17
2024-05-09T18:10:32.568Z,20.27
2024-05-09T18:13:03.734Z,20.25
2024-05-09T18:15:30.568Z,20.13
2024-05-09T18:17:57.576Z,20.92
2024-05-09T18:20:33.154Z,19.88
2024-05-09T18:23:07.980Z,20.23
2024-05-09T18:25:34.673Z,20.45
2024-05-09T18:28:04.835Z,20.35
2024-05-09T18:30:35.137Z,20.20
2024-05-09T18:33:05.433Z,20.58
2024-05-09T18:35:33.331Z,20.45
2024-05-09T18:38:00.524Z,20.25
2024-05-09T18:40:33.729Z,20.75
2024-05-09T18:43:06.112Z,20.42
2024-05-09T18:45:34.478Z,20.60
2024-05-09T18:48:01.296Z,20.15
2024-05-09T18:50:34.531Z,20.60
2024-05-09T18:53:08.740Z,20.85
2024-05-09T18:55:36.173Z,20.45
2024-05-09T18:58:04.526Z,21.50
2024-05-09T19:00:35.895Z,21.95
2024-05-09T19:03:08.943Z,23.63
2024-05-09T19:05:38.221Z,22.63
2024-05-09T19:08:05.673Z,21.23
2024-05-09T19:10:34.919Z,23.13
2024-05-09T19:13:06.838Z,22.17
2024-05-09T19:15:37.654Z,21.48
2024-05-09T19:18:04.841Z,22.65
2024-05-09T19:20:34.416Z,23.25
2024-05-09T19:23:02.891Z,23.15
2024-05-09T19:25:29.641Z,23.98
2024-05-09T19:27:56.244Z,23.67
2024-05-09T19:30:30.427Z,23.77
2024-05-09T19:33:05.833Z,26.98
2024-05-09T19:35:32.822Z,27.50
2024-05-09T19:37:59.643Z,27.90
2024-05-09T19:40:31.373Z,28.08
2024-05-09T19:43:01.528Z,25.95
2024-05-09T19:45:28.818Z,25.27
2024-05-09T19:47:55.957Z,26.15
2024-05-09T19:50:30.986Z,27.77
2024-05-09T19:53:04.155Z,27.35
2024-05-09T19:55:30.737Z,28.92
2024-05-09T19:57:57.881Z,27.70
2024-05-09T20:00:32.573Z,29.52
2024-05-09T20:03:02.560Z,26.90
2024-05-09T20:05:31.221Z,27.45
2024-05-09T20:07:58.307Z,27.35
2024-05-09T20:10:31.350Z,27.95
2024-05-09T20:13:00.339Z,28.17
2024-05-09T20:15:27.162Z,27.02
2024-05-09T20:17:54.346Z,28.35
2024-05-09T20:20:31.951Z,27.50
2024-05-09T20:23:03.861Z,28.90
2024-05-09T20:25:30.482Z,28.80
2024-05-09T20:27:57.077Z,29.73
2024-05-09T20:30:31.241Z,29.92
2024-05-09T20:33:00.518Z,30.00
2024-05-09T20:35:31.782Z,30.17
2024-05-09T20:37:58.781Z,30.25
2024-05-09T20:40:31.627Z,31.23
2024-05-09T20:43:02.042Z,29.90
2024-05-09T20:45:28.704Z,31.23
2024-05-09T20:47:56.431Z,32.88
2024-05-09T20:50:32.032Z,32.42
2024-05-09T20:53:05.234Z,32.58
2024-05-09T20:55:31.882Z,34.50
2024-05-09T20:57:58.703Z,33.78
2024-05-09T21:00:34.628Z,34.60
2024-05-09T21:03:07.204Z,35.22
2024-05-09T21:05:35.048Z,33.92
2024-05-09T21:08:02.138Z,36.40
2024-05-09T21:10:32.801Z,33.35
2024-05-09T21:13:01.659Z,34.28
2024-05-09T21:15:28.858Z,34.92
2024-05-09T21:17:55.473Z,36.60
2024-05-09T21:20:28.755Z,36.50
2024-05-09T21:22:58.335Z,36.00
2024-05-09T21:25:24.976Z,36.78
2024-05-09T21:27:51.844Z,35.58
2024-05-09T21:30:27.766Z,36.22
2024-05-09T21:33:04.729Z,35.28
2024-05-09T21:35:31.559Z,36.40
2024-05-09T21:37:58.256Z,35.08
2024-05-09T21:40:31.571Z,37.10
2024-05-09T21:43:01.513Z,35.65
2024-05-09T21:45:28.149Z,36.28
2024-05-09T21:47:55.119Z,36.10
2024-05-09T21:50:28.202Z,36.22
2024-05-09T21:53:02.015Z,39.35
2024-05-09T21:55:28.606Z,40.45
2024-05-09T21:57:56.625Z,35.63
2024-05-09T22:00:29.232Z,34.55
2024-05-09T22:03:02.605Z,33.58
2024-05-09T22:05:29.720Z,34.20
2024-05-09T22:07:56.966Z,35.53
2024-05-09T22:10:30.495Z,38.67
2024-05-09T22:13:00.739Z,43.88
2024-05-09T22:15:27.457Z,40.95
2024-05-09T22:17:56.207Z,35.70
2024-05-09T22:20:32.820Z,38.13
2024-05-09T22:23:03.219Z,34.65
2024-05-09T22:25:31.140Z,34.08
2024-05-09T22:27:59.030Z,33.47
2024-05-09T22:30:34.229Z,34.55
2024-05-09T22:33:05.759Z,35.47
2024-05-09T22:35:32.882Z,33.85
2024-05-09T22:37:59.641Z,35.50
2024-05-09T22:40:38.092Z,33.53
2024-05-09T22:43:12.911Z,33.58
2024-05-09T22:45:39.735Z,33.58
2024-05-09T22:48:07.635Z,33.95
2024-05-09T22:50:34.736Z,34.30
2024-05-09T22:53:01.483Z,36.10
2024-05-09T22:55:28.310Z,35.67
2024-05-09T22:57:55.156Z,37.50
2024-05-09T23:00:29.459Z,36.17
2024-05-09T23:03:00.049Z,35.60
2024-05-09T23:05:26.978Z,35.38
2024-05-09T23:07:53.756Z,35.47
2024-05-09T23:10:27.909Z,34.20
2024-05-09T23:13:00.856Z,34.85
2024-05-09T23:15:27.581Z,34.03
2024-05-09T23:17:54.434Z,34.85
2024-05-09T23:20:30.063Z,35.65
2024-05-09T23:23:03.814Z,36.75
2024-05-09T23:25:30.472Z,36.17
2024-05-09T23:27:57.160Z,34.80
2024-05-09T23:30:33.362Z,36.90
2024-05-09T23:33:05.167Z,34.88
2024-05-09T23:35:31.904Z,36.30
2024-05-09T23:37:58.544Z,35.42
2024-05-09T23:40:36.659Z,33.80
2024-05-09T23:43:06.720Z,36.70
2024-05-09T23:45:33.724Z,38.42
2024-05-09T23:48:00.822Z,37.72
2024-05-09T23:50:34.396Z,36.95
2024-05-09T23:53:04.505Z,38.10
2024-05-09T23:55:32.093Z,38.47
2024-05-09T23:57:59.189Z,38.35
